createdAt,value
2019-04-14T00:04:36.326Z,79.73
2019-04-14T00:09:41.551Z,80.11
2019-04-14T00:14:47.004Z,80.08
2019-04-14T00:19:52.998Z,80.02
2019-04-14T00:24:59.638Z,79.63
2019-04-14T00:30:07.588Z,80.21
2019-04-14T00:35:23.124Z,79.53
2019-04-14T00:40:34.671Z,79.43
2019-04-14T00:45:52.690Z,79.88
2019-04-14T00:50:56.038Z,79.93
2019-04-14T00:56:01.973Z,79.73
2019-04-14T01:01:07.492Z,79.29
2019-04-14T01:06:12.659Z,79.29
2019-04-14T01:11:18.187Z,78.96
2019-04-14T01:16:25.015Z,78.50
2019-04-14T01:21:31.339Z,79.27
2019-04-14T01:26:37.796Z,79.08
2019-04-14T01:31:44.671Z,79.63
2019-04-14T01:36:49.991Z,80.07
2019-04-14T01:41:56.319Z,80.88
2019-04-14T01:47:01.647Z,80.64
2019-04-14T01:52:18.831Z,80.27
2019-04-14T01:57:41.396Z,80.19
2019-04-14T02:02:47.134Z,80.39
2019-04-14T02:07:53.760Z,80.51
2019-04-14T02:12:58.990Z,81.17
2019-04-14T02:18:05.591Z,82.13
2019-04-14T02:23:12.441Z,82.23
2019-04-14T02:28:17.876Z,81.81
2019-04-14T02:39:10.352Z,82.69
2019-04-14T02:44:15.907Z,82.28
2019-04-14T02:49:16.881Z,82.50
2019-04-14T02:54:32.669Z,82.84
2019-04-14T02:59:27.045Z,83.14
2019-04-14T03:04:41.360Z,83.17
2019-04-14T03:09:41.806Z,83.58
2019-04-14T03:14:50.320Z,84.02
2019-04-14T03:25:15.202Z,83.93
2019-04-14T03:31:12.230Z,84.34
2019-04-14T03:41:00.232Z,84.69
2019-04-14T03:46:09.671Z,84.49
2019-04-14T03:51:21.313Z,84.78
2019-04-14T03:56:27.047Z,84.96
2019-04-14T04:01:32.349Z,84.98
2019-04-14T04:06:38.287Z,85.35
2019-04-14T04:11:43.518Z,85.97
2019-04-14T04:17:05.811Z,86.31
2019-04-14T04:22:28.911Z,86.20
2019-04-14T04:27:52.898Z,86.34
2019-04-14T04:33:15.516Z,85.90
2019-04-14T04:38:27.717Z,86.43
2019-04-14T04:43:34.146Z,86.95
2019-04-14T04:48:39.362Z,87.14
2019-04-14T04:53:44.479Z,86.78
2019-04-14T04:58:50.566Z,86.69
2019-04-14T05:03:55.739Z,86.43
2019-04-14T05:09:07.924Z,86.24
2019-04-14T05:14:19.476Z,85.98
2019-04-14T05:19:30.298Z,85.36
2019-04-14T05:24:33.247Z,84.79
2019-04-14T05:29:38.669Z,84.56
2019-04-14T05:34:43.868Z,84.46
2019-04-14T05:39:50.413Z,84.68
2019-04-14T05:44:57.826Z,84.25
2019-04-14T05:50:03.219Z,84.39
2019-04-14T05:55:08.863Z,84.38
2019-04-14T06:00:17.371Z,84.59
2019-04-14T06:05:23.255Z,84.85
2019-04-14T06:10:28.656Z,84.97
2019-04-14T06:15:34.558Z,85.55
2019-04-14T06:20:41.024Z,84.92
2019-04-14T06:25:46.222Z,85.00
2019-04-14T06:31:09.143Z,85.33
2019-04-14T06:36:29.737Z,85.67
2019-04-14T06:41:37.169Z,85.81
2019-04-14T06:46:42.950Z,86.52
2019-04-14T06:51:48.186Z,87.44
2019-04-14T06:56:53.693Z,88.01
2019-04-14T07:01:59.274Z,88.60
2019-04-14T07:07:05.779Z,88.50
2019-04-14T07:12:11.452Z,88.29
2019-04-14T07:17:16.738Z,88.19
2019-04-14T07:22:22.973Z,88.43
2019-04-14T07:27:28.893Z,88.36
2019-04-14T07:32:50.545Z,88.67
2019-04-14T07:38:18.016Z,88.86
2019-04-14T07:43:35.283Z,89.64
2019-04-14T07:49:05.706Z,90.46
2019-04-14T07:54:41.307Z,91.04
2019-04-14T08:00:12.742Z,91.45
2019-04-14T08:05:21.147Z,92.08
2019-04-14T08:10:26.736Z,92.99
2019-04-14T08:15:32.801Z,93.17
2019-04-14T08:20:38.661Z,93.11
2019-04-14T08:25:44.244Z,92.64
2019-04-14T08:30:49.393Z,92.38
2019-04-14T08:35:54.473Z,92.01
2019-04-14T08:40:59.650Z,92.15
2019-04-14T08:46:27.549Z,92.20
2019-04-14T08:51:51.610Z,92.39
2019-04-14T08:57:14.924Z,92.12
2019-04-14T09:02:27.222Z,92.24
2019-04-14T09:07:36.644Z,91.80
2019-04-14T09:12:49.099Z,91.42
2019-04-14T09:17:54.983Z,91.17
2019-04-14T09:23:00.123Z,90.92
2019-04-14T09:28:05.338Z,90.29
2019-04-14T09:33:11.197Z,90.61
2019-04-14T09:38:16.698Z,90.63
2019-04-14T09:43:21.770Z,89.86
2019-04-14T09:48:27.044Z,91.27
2019-04-14T09:53:32.841Z,91.21
2019-04-14T09:58:37.845Z,91.59
2019-04-14T10:03:43.252Z,92.05
2019-04-14T10:08:48.391Z,92.20
2019-04-14T10:13:54.728Z,92.28
2019-04-14T10:19:00.278Z,92.90
2019-04-14T10:24:06.495Z,92.71
2019-04-14T10:29:11.566Z,92.71
2019-04-14T10:34:16.979Z,92.69
2019-04-14T10:39:22.427Z,93.30
2019-04-14T10:44:27.554Z,92.73
2019-04-14T10:49:33.089Z,93.52
2019-04-14T10:54:38.760Z,93.30
2019-04-14T10:59:43.833Z,92.97
2019-04-14T11:04:49.058Z,94.13
2019-04-14T11:09:54.526Z,94.37
2019-04-14T11:14:59.598Z,94.15
2019-04-14T11:20:05.202Z,94.46
2019-04-14T11:25:11.629Z,94.86
2019-04-14T11:30:20.590Z,93.57
2019-04-14T11:35:47.535Z,93.79
2019-04-14T11:41:00.064Z,93.00
2019-04-14T11:46:05.402Z,92.69
2019-04-14T11:51:12.028Z,93.62
2019-04-14T11:56:17.832Z,93.42
2019-04-14T12:01:37.899Z,92.87
2019-04-14T12:07:14.978Z,92.05
2019-04-14T12:12:20.204Z,92.43
2019-04-14T12:17:25.308Z,92.77
2019-04-14T12:22:30.843Z,92.28
2019-04-14T12:27:35.914Z,91.64
2019-04-14T12:32:42.115Z,92.45
2019-04-14T12:37:47.260Z,92.76
2019-04-14T12:43:07.130Z,92.72
2019-04-14T12:48:37.054Z,91.93
2019-04-14T12:53:42.197Z,92.48
2019-04-14T12:59:12.719Z,92.81
2019-04-14T13:04:18.440Z,92.65
2019-04-14T13:09:23.587Z,92.91
2019-04-14T13:14:28.744Z,92.27
2019-04-14T13:19:34.377Z,92.58
2019-04-14T13:24:39.616Z,92.43
2019-04-14T13:29:45.210Z,92.00
2019-04-14T13:34:50.631Z,92.23
2019-04-14T13:39:55.641Z,91.84
2019-04-14T13:45:00.764Z,91.60
2019-04-14T13:50:06.788Z,92.01
2019-04-14T13:55:12.376Z,91.90
2019-04-14T14:00:18.960Z,91.65
2019-04-14T14:05:24.064Z,92.24
2019-04-14T14:10:30.679Z,91.89
2019-04-14T14:16:04.158Z,92.52
2019-04-14T14:21:27.689Z,92.83
2019-04-14T14:26:34.222Z,93.20
2019-04-14T14:31:39.409Z,93.10
2019-04-14T14:36:44.558Z,93.35
2019-04-14T14:41:49.714Z,94.13
2019-04-14T14:47:02.427Z,93.98
2019-04-14T14:52:09.708Z,93.68
2019-04-14T14:57:15.322Z,93.92
2019-04-14T15:02:21.157Z,94.28
2019-04-14T15:07:26.429Z,94.72
2019-04-14T15:12:31.835Z,94.79
2019-04-14T15:17:37.103Z,95.16
2019-04-14T15:22:42.296Z,94.99
2019-04-14T15:27:47.814Z,95.17
2019-04-14T15:32:52.913Z,95.41
2019-04-14T15:37:58.155Z,95.63
2019-04-14T15:43:03.463Z,95.76
2019-04-14T15:48:09.330Z,96.11
2019-04-14T15:53:14.909Z,96.25
2019-04-14T15:58:47.933Z,96.12
2019-04-14T16:03:58.071Z,96.15
2019-04-14T16:09:13.440Z,96.18
2019-04-14T16:14:38.438Z,96.34
2019-04-14T16:19:50.120Z,96.61
2019-04-14T16:24:55.219Z,96.78
2019-04-14T16:30:20.088Z,97.01
2019-04-14T16:35:28.101Z,97.21
2019-04-14T16:40:34.447Z,97.34
2019-04-14T16:45:40.096Z,97.51
2019-04-14T16:50:45.609Z,97.84
2019-04-14T16:56:22.116Z,97.96
2019-04-14T17:01:32.236Z,97.91
2019-04-14T17:06:37.490Z,97.68
2019-04-14T17:11:43.983Z,97.86
2019-04-14T17:17:08.983Z,97.91
2019-04-14T17:22:35.879Z,97.89
2019-04-14T17:27:57.577Z,98.22
2019-04-14T17:33:20.889Z,98.18
2019-04-14T17:38:38.650Z,98.42
2019-04-14T17:44:02.364Z,98.55
2019-04-14T17:49:38.931Z,98.68
2019-04-14T17:54:54.336Z,98.64
2019-04-14T18:00:11.473Z,98.49
2019-04-14T18:05:37.279Z,98.39
2019-04-14T18:11:07.761Z,98.55
2019-04-14T18:16:22.993Z,98.61
2019-04-14T18:21:28.443Z,98.76
2019-04-14T18:26:33.954Z,98.74
2019-04-14T18:31:57.015Z,98.86
2019-04-14T18:37:09.558Z,98.91
2019-04-14T18:42:28.803Z,99.07
2019-04-14T18:47:46.401Z,99.13
2019-04-14T18:53:10.497Z,99.21
2019-04-14T18:58:33.388Z,99.28
2019-04-14T19:03:39.031Z,99.47
2019-04-14T19:08:44.636Z,99.70
2019-04-14T19:13:52.220Z,99.79
2019-04-14T19:18:59.120Z,99.80
2019-04-14T19:24:04.693Z,99.94
2019-04-14T19:29:10.969Z,100.00
2019-04-14T19:34:16.426Z,100.00
2019-04-14T19:39:22.478Z,100.00
2019-04-14T19:44:28.028Z,100.00
2019-04-14T19:49:33.215Z,100.00
2019-04-14T19:54:38.486Z,100.00
2019-04-14T19:59:43.590Z,100.00
2019-04-14T20:04:48.747Z,100.00
2019-04-14T20:09:54.507Z,100.00
2019-04-14T20:15:00.520Z,100.00
2019-04-14T20:20:24.350Z,100.00
2019-04-14T20:25:47.308Z,100.00
2019-04-14T20:30:57.928Z,100.00
2019-04-14T20:36:05.312Z,100.00
2019-04-14T20:41:09.943Z,100.00
2019-04-14T20:46:15.286Z,100.00
2019-04-14T20:51:20.756Z,100.00
2019-04-14T20:56:25.915Z,100.00
2019-04-14T21:01:34.471Z,100.00
2019-04-14T21:06:51.654Z,100.00
2019-04-14T21:12:17.182Z,100.00
2019-04-14T21:17:44.189Z,100.00
2019-04-14T21:22:55.544Z,100.00
2019-04-14T21:28:31.795Z,100.00
2019-04-14T21:34:05.450Z,100.00
2019-04-14T21:39:32.675Z,99.93
2019-04-14T21:44:37.828Z,99.60
2019-04-14T21:49:43.881Z,99.55
2019-04-14T21:54:49.820Z,99.60
2019-04-14T22:00:13.372Z,99.59
2019-04-14T22:05:29.904Z,99.55
2019-04-14T22:10:39.676Z,99.40
2019-04-14T22:15:44.968Z,98.89
2019-04-14T22:20:50.117Z,98.92
2019-04-14T22:25:57.760Z,99.01
2019-04-14T22:31:02.967Z,99.00
2019-04-14T22:36:08.118Z,99.02
2019-04-14T22:41:13.853Z,99.00
2019-04-14T22:46:18.958Z,99.03
2019-04-14T22:51:24.469Z,99.28
2019-04-14T22:56:39.013Z,99.60
2019-04-14T23:01:38.502Z,99.76
2019-04-14T23:07:01.097Z,100.00
2019-04-14T23:12:40.725Z,100.00
2019-04-14T23:17:54.752Z,100.00
2019-04-14T23:23:31.012Z,100.00
2019-04-14T23:28:36.173Z,100.00
2019-04-14T23:33:42.021Z,100.00
2019-04-14T23:38:47.195Z,100.00
2019-04-14T23:43:52.294Z,100.00
2019-04-14T23:48:57.741Z,99.88
2019-04-14T23:54:02.957Z,99.45
2019-04-14T23:59:08.191Z,99.43
